Bolton, North Carolina
Current Conditions -  °F | °C
As of 3:35 PM on Monday 26 Jan 2015 (Local Time) from KCPC Reporting Station
Light Rain Light Rain  
Wind Chill: 54°   Ceiling: 8000
Heat Index: 54°   Visibility: 10mi
Dew Point: 42°   Wind: 3mph
Humidity: 63%   Direction: 250°WSW
Pressure: 29.56"   Gusts: NA
Location:  34.32°N, 78.4°W
Report Text: KCPC 262035Z AUTO 25003KT 10SM -RA BKN080 OVC090 12/05 A2956 RMK AO2 T01230054
Loading
Personal Weather Stations






























Interactive Weather Map New forecast layout! Learn more

10-Day Weather Forecast

Advertisements
Track Severe Weather on mobile